<?xml version="1.0" encoding="UTF-8" standalone="no" ?>
<gpx xmlns="http://www.topografix.com/GPX/1/1" xmlns:xsi="http://www.w3.org/2001/XMLSchema-instance" xsi:schemaLocation="http://www.topografix.com/GPX/1/1 http://www.topografix.com/GPX/1/1/gpx.xsd" version="1.1" creator="VisuGPX - https://www.visugpx.com">
  <metadata>
    <name>StLaurentsevre_MallievreMoulinGuy_11-18km</name>
    <desc><![CDATA[gnerando idor:6542746_6636816_6717107_8386774_]]></desc>
  </metadata>
  <trk>
    <name><![CDATA[StLaurentSevre_MallievreAR_18.3km-8386774]]></name>
    <extensions>
      <line xmlns="http://www.topografix.com/GPX/gpx_style/0/2">
        <color>00FF00</color>
        <width>4</width>
      </line>
    </extensions>
    <trkseg>
      <trkpt lat="46.9589" lon="-0.88689">
        <ele>112</ele>
        <time>2023-11-13T07:30:10Z</time>
      </trkpt>
      <trkpt lat="46.95872" lon="-0.88687">
        <ele>111</ele>
        <time>2023-11-13T07:30:34Z</time>
      </trkpt>
      <trkpt lat="46.95858" lon="-0.88671">
        <ele>111</ele>
        <time>2023-11-13T07:30:58Z</time>
      </trkpt>
      <trkpt lat="46.95847" lon="-0.88648">
        <ele>111</ele>
        <time>2023-11-13T07:31:23Z</time>
      </trkpt>
      <trkpt lat="46.95822" lon="-0.88609">
        <ele>111</ele>
        <time>2023-11-13T07:32:12Z</time>
      </trkpt>
      <trkpt lat="46.95803" lon="-0.88562">
        <ele>111</ele>
        <time>2023-11-13T07:33:02Z</time>
      </trkpt>
      <trkpt lat="46.95788" lon="-0.88547">
        <ele>111</ele>
        <time>2023-11-13T07:33:26Z</time>
      </trkpt>
      <trkpt lat="46.95763" lon="-0.88506">
        <ele>110</ele>
        <time>2023-11-13T07:34:16Z</time>
      </trkpt>
      <trkpt lat="46.95733" lon="-0.88475">
        <ele>111</ele>
        <time>2023-11-13T07:35:05Z</time>
      </trkpt>
      <trkpt lat="46.95716" lon="-0.88462">
        <ele>111</ele>
        <time>2023-11-13T07:35:31Z</time>
      </trkpt>
      <trkpt lat="46.95673" lon="-0.8841">
        <ele>111</ele>
        <time>2023-11-13T07:36:45Z</time>
      </trkpt>
      <trkpt lat="46.95638" lon="-0.88388">
        <ele>112</ele>
        <time>2023-11-13T07:37:36Z</time>
      </trkpt>
      <trkpt lat="46.95602" lon="-0.8837">
        <ele>114</ele>
        <time>2023-11-13T07:38:27Z</time>
      </trkpt>
      <trkpt lat="46.95589" lon="-0.8835">
        <ele>116</ele>
        <time>2023-11-13T07:38:52Z</time>
      </trkpt>
      <trkpt lat="46.95575" lon="-0.88334">
        <ele>117</ele>
        <time>2023-11-13T07:39:16Z</time>
      </trkpt>
      <trkpt lat="46.95519" lon="-0.88331">
        <ele>115</ele>
        <time>2023-11-13T07:40:30Z</time>
      </trkpt>
      <trkpt lat="46.955" lon="-0.88336">
        <ele>114</ele>
        <time>2023-11-13T07:40:56Z</time>
      </trkpt>
      <trkpt lat="46.9547" lon="-0.88367">
        <ele>113</ele>
        <time>2023-11-13T07:41:45Z</time>
      </trkpt>
      <trkpt lat="46.95438" lon="-0.88395">
        <ele>112</ele>
        <time>2023-11-13T07:42:35Z</time>
      </trkpt>
      <trkpt lat="46.95419" lon="-0.88399">
        <ele>111</ele>
        <time>2023-11-13T07:43:00Z</time>
      </trkpt>
      <trkpt lat="46.95401" lon="-0.88395">
        <ele>112</ele>
        <time>2023-11-13T07:43:25Z</time>
      </trkpt>
      <trkpt lat="46.95382" lon="-0.88394">
        <ele>113</ele>
        <time>2023-11-13T07:43:50Z</time>
      </trkpt>
      <trkpt lat="46.95346" lon="-0.88382">
        <ele>114</ele>
        <time>2023-11-13T07:44:39Z</time>
      </trkpt>
      <trkpt lat="46.95328" lon="-0.88382">
        <ele>115</ele>
        <time>2023-11-13T07:45:03Z</time>
      </trkpt>
      <trkpt lat="46.95291" lon="-0.88396">
        <ele>117</ele>
        <time>2023-11-13T07:45:54Z</time>
      </trkpt>
      <trkpt lat="46.95273" lon="-0.88399">
        <ele>117</ele>
        <time>2023-11-13T07:46:19Z</time>
      </trkpt>
      <trkpt lat="46.95254" lon="-0.88397">
        <ele>119</ele>
        <time>2023-11-13T07:46:44Z</time>
      </trkpt>
      <trkpt lat="46.95235" lon="-0.8839">
        <ele>120</ele>
        <time>2023-11-13T07:47:10Z</time>
      </trkpt>
      <trkpt lat="46.95198" lon="-0.88385">
        <ele>120</ele>
        <time>2023-11-13T07:48:00Z</time>
      </trkpt>
      <trkpt lat="46.95163" lon="-0.88366">
        <ele>121</ele>
        <time>2023-11-13T07:48:50Z</time>
      </trkpt>
      <trkpt lat="46.95129" lon="-0.88342">
        <ele>121</ele>
        <time>2023-11-13T07:49:40Z</time>
      </trkpt>
      <trkpt lat="46.95114" lon="-0.88328">
        <ele>121</ele>
        <time>2023-11-13T07:50:04Z</time>
      </trkpt>
      <trkpt lat="46.95064" lon="-0.88213">
        <ele>123</ele>
        <time>2023-11-13T07:52:08Z</time>
      </trkpt>
      <trkpt lat="46.95023" lon="-0.88157">
        <ele>120</ele>
        <time>2023-11-13T07:53:23Z</time>
      </trkpt>
      <trkpt lat="46.95006" lon="-0.88143">
        <ele>119</ele>
        <time>2023-11-13T07:53:49Z</time>
      </trkpt>
      <trkpt lat="46.94987" lon="-0.88139">
        <ele>118</ele>
        <time>2023-11-13T07:54:14Z</time>
      </trkpt>
      <trkpt lat="46.94969" lon="-0.88147">
        <ele>117</ele>
        <time>2023-11-13T07:54:39Z</time>
      </trkpt>
      <trkpt lat="46.94951" lon="-0.88149">
        <ele>116</ele>
        <time>2023-11-13T07:55:03Z</time>
      </trkpt>
      <trkpt lat="46.94933" lon="-0.88139">
        <ele>115</ele>
        <time>2023-11-13T07:55:29Z</time>
      </trkpt>
      <trkpt lat="46.94868" lon="-0.88087">
        <ele>115</ele>
        <time>2023-11-13T07:57:08Z</time>
      </trkpt>
      <trkpt lat="46.94833" lon="-0.88065">
        <ele>115</ele>
        <time>2023-11-13T07:57:59Z</time>
      </trkpt>
      <trkpt lat="46.94814" lon="-0.8806">
        <ele>116</ele>
        <time>2023-11-13T07:58:25Z</time>
      </trkpt>
      <trkpt lat="46.94777" lon="-0.8807">
        <ele>117</ele>
        <time>2023-11-13T07:59:15Z</time>
      </trkpt>
      <trkpt lat="46.94758" lon="-0.88067">
        <ele>117</ele>
        <time>2023-11-13T07:59:40Z</time>
      </trkpt>
      <trkpt lat="46.94743" lon="-0.88049">
        <ele>118</ele>
        <time>2023-11-13T08:00:06Z</time>
      </trkpt>
      <trkpt lat="46.94731" lon="-0.88029">
        <ele>119</ele>
        <time>2023-11-13T08:00:30Z</time>
      </trkpt>
      <trkpt lat="46.94715" lon="-0.88016">
        <ele>121</ele>
        <time>2023-11-13T08:00:55Z</time>
      </trkpt>
      <trkpt lat="46.94681" lon="-0.88036">
        <ele>122</ele>
        <time>2023-11-13T08:01:44Z</time>
      </trkpt>
      <trkpt lat="46.94664" lon="-0.8803">
        <ele>123</ele>
        <time>2023-11-13T08:02:07Z</time>
      </trkpt>
      <trkpt lat="46.94609" lon="-0.88045">
        <ele>127</ele>
        <time>2023-11-13T08:03:22Z</time>
      </trkpt>
      <trkpt lat="46.94594" lon="-0.88059">
        <ele>127</ele>
        <time>2023-11-13T08:03:45Z</time>
      </trkpt>
      <trkpt lat="46.9456" lon="-0.88079">
        <ele>126</ele>
        <time>2023-11-13T08:04:34Z</time>
      </trkpt>
      <trkpt lat="46.94545" lon="-0.88095">
        <ele>125</ele>
        <time>2023-11-13T08:04:59Z</time>
      </trkpt>
      <trkpt lat="46.9447" lon="-0.88101">
        <ele>124</ele>
        <time>2023-11-13T08:06:39Z</time>
      </trkpt>
      <trkpt lat="46.94452" lon="-0.88097">
        <ele>124</ele>
        <time>2023-11-13T08:07:04Z</time>
      </trkpt>
      <trkpt lat="46.9442" lon="-0.88069">
        <ele>125</ele>
        <time>2023-11-13T08:07:53Z</time>
      </trkpt>
      <trkpt lat="46.944" lon="-0.88024">
        <ele>129</ele>
        <time>2023-11-13T08:08:42Z</time>
      </trkpt>
      <trkpt lat="46.94346" lon="-0.87948">
        <ele>131</ele>
        <time>2023-11-13T08:10:22Z</time>
      </trkpt>
      <trkpt lat="46.9434" lon="-0.87922">
        <ele>132</ele>
        <time>2023-11-13T08:10:47Z</time>
      </trkpt>
      <trkpt lat="46.94339" lon="-0.87868">
        <ele>136</ele>
        <time>2023-11-13T08:11:36Z</time>
      </trkpt>
      <trkpt lat="46.94328" lon="-0.87845">
        <ele>137</ele>
        <time>2023-11-13T08:12:02Z</time>
      </trkpt>
      <trkpt lat="46.9431" lon="-0.87841">
        <ele>135</ele>
        <time>2023-11-13T08:12:26Z</time>
      </trkpt>
      <trkpt lat="46.94276" lon="-0.87821">
        <ele>133</ele>
        <time>2023-11-13T08:13:15Z</time>
      </trkpt>
      <trkpt lat="46.94257" lon="-0.87814">
        <ele>132</ele>
        <time>2023-11-13T08:13:41Z</time>
      </trkpt>
      <trkpt lat="46.9424" lon="-0.87803">
        <ele>132</ele>
        <time>2023-11-13T08:14:06Z</time>
      </trkpt>
      <trkpt lat="46.94227" lon="-0.87785">
        <ele>132</ele>
        <time>2023-11-13T08:14:30Z</time>
      </trkpt>
      <trkpt lat="46.94211" lon="-0.87772">
        <ele>132</ele>
        <time>2023-11-13T08:14:54Z</time>
      </trkpt>
      <trkpt lat="46.94182" lon="-0.87737">
        <ele>131</ele>
        <time>2023-11-13T08:15:45Z</time>
      </trkpt>
      <trkpt lat="46.94168" lon="-0.87719">
        <ele>131</ele>
        <time>2023-11-13T08:16:09Z</time>
      </trkpt>
      <trkpt lat="46.94149" lon="-0.87687">
        <ele>132</ele>
        <time>2023-11-13T08:16:48Z</time>
      </trkpt>
      <trkpt lat="46.94169" lon="-0.87696">
        <ele>134</ele>
        <time>2023-11-13T08:17:16Z</time>
      </trkpt>
      <trkpt lat="46.94155" lon="-0.87678">
        <ele>133</ele>
        <time>2023-11-13T08:17:41Z</time>
      </trkpt>
      <trkpt lat="46.94163" lon="-0.87653">
        <ele>138</ele>
        <time>2023-11-13T08:18:06Z</time>
      </trkpt>
      <trkpt lat="46.9418" lon="-0.87644">
        <ele>142</ele>
        <time>2023-11-13T08:18:30Z</time>
      </trkpt>
      <trkpt lat="46.94198" lon="-0.87641">
        <ele>146</ele>
        <time>2023-11-13T08:18:54Z</time>
      </trkpt>
      <trkpt lat="46.94236" lon="-0.87666">
        <ele>148</ele>
        <time>2023-11-13T08:19:50Z</time>
      </trkpt>
      <trkpt lat="46.94253" lon="-0.87656">
        <ele>152</ele>
        <time>2023-11-13T08:20:14Z</time>
      </trkpt>
      <trkpt lat="46.94267" lon="-0.87639">
        <ele>157</ele>
        <time>2023-11-13T08:20:39Z</time>
      </trkpt>
      <trkpt lat="46.94286" lon="-0.87637">
        <ele>159</ele>
        <time>2023-11-13T08:21:04Z</time>
      </trkpt>
      <trkpt lat="46.94301" lon="-0.87651">
        <ele>158</ele>
        <time>2023-11-13T08:21:28Z</time>
      </trkpt>
      <trkpt lat="46.94319" lon="-0.87645">
        <ele>161</ele>
        <time>2023-11-13T08:21:52Z</time>
      </trkpt>
      <trkpt lat="46.94319" lon="-0.87617">
        <ele>165</ele>
        <time>2023-11-13T08:22:18Z</time>
      </trkpt>
      <trkpt lat="46.94326" lon="-0.87592">
        <ele>169</ele>
        <time>2023-11-13T08:22:43Z</time>
      </trkpt>
      <trkpt lat="46.94344" lon="-0.87588">
        <ele>169</ele>
        <time>2023-11-13T08:23:07Z</time>
      </trkpt>
      <trkpt lat="46.94358" lon="-0.87605">
        <ele>167</ele>
        <time>2023-11-13T08:23:31Z</time>
      </trkpt>
      <trkpt lat="46.94372" lon="-0.87655">
        <ele>162</ele>
        <time>2023-11-13T08:24:20Z</time>
      </trkpt>
      <trkpt lat="46.94382" lon="-0.87706">
        <ele>157</ele>
        <time>2023-11-13T08:25:09Z</time>
      </trkpt>
      <trkpt lat="46.94376" lon="-0.87731">
        <ele>154</ele>
        <time>2023-11-13T08:25:33Z</time>
      </trkpt>
      <trkpt lat="46.94362" lon="-0.8775">
        <ele>152</ele>
        <time>2023-11-13T08:25:58Z</time>
      </trkpt>
      <trkpt lat="46.94368" lon="-0.87786">
        <ele>148</ele>
        <time>2023-11-13T08:26:32Z</time>
      </trkpt>
      <trkpt lat="46.94388" lon="-0.87793">
        <ele>148</ele>
        <time>2023-11-13T08:27:00Z</time>
      </trkpt>
      <trkpt lat="46.94405" lon="-0.87782">
        <ele>151</ele>
        <time>2023-11-13T08:27:24Z</time>
      </trkpt>
      <trkpt lat="46.94415" lon="-0.8776">
        <ele>154</ele>
        <time>2023-11-13T08:27:48Z</time>
      </trkpt>
      <trkpt lat="46.94433" lon="-0.87756">
        <ele>155</ele>
        <time>2023-11-13T08:28:13Z</time>
      </trkpt>
      <trkpt lat="46.94452" lon="-0.87755">
        <ele>156</ele>
        <time>2023-11-13T08:28:38Z</time>
      </trkpt>
      <trkpt lat="46.94466" lon="-0.87737">
        <ele>157</ele>
        <time>2023-11-13T08:29:03Z</time>
      </trkpt>
      <trkpt lat="46.94484" lon="-0.8773">
        <ele>158</ele>
        <time>2023-11-13T08:29:28Z</time>
      </trkpt>
      <trkpt lat="46.94499" lon="-0.87714">
        <ele>159</ele>
        <time>2023-11-13T08:29:53Z</time>
      </trkpt>
      <trkpt lat="46.94511" lon="-0.87694">
        <ele>159</ele>
        <time>2023-11-13T08:30:17Z</time>
      </trkpt>
      <trkpt lat="46.94526" lon="-0.87679">
        <ele>160</ele>
        <time>2023-11-13T08:30:41Z</time>
      </trkpt>
      <trkpt lat="46.94554" lon="-0.87642">
        <ele>160</ele>
        <time>2023-11-13T08:31:31Z</time>
      </trkpt>
      <trkpt lat="46.946" lon="-0.87556">
        <ele>157</ele>
        <time>2023-11-13T08:33:11Z</time>
      </trkpt>
      <trkpt lat="46.9466" lon="-0.87451">
        <ele>158</ele>
        <time>2023-11-13T08:35:16Z</time>
      </trkpt>
      <trkpt lat="46.94681" lon="-0.87408">
        <ele>159</ele>
        <time>2023-11-13T08:36:04Z</time>
      </trkpt>
      <trkpt lat="46.94694" lon="-0.87387">
        <ele>160</ele>
        <time>2023-11-13T08:36:30Z</time>
      </trkpt>
      <trkpt lat="46.94709" lon="-0.87372">
        <ele>160</ele>
        <time>2023-11-13T08:36:54Z</time>
      </trkpt>
      <trkpt lat="46.94715" lon="-0.87347">
        <ele>160</ele>
        <time>2023-11-13T08:37:18Z</time>
      </trkpt>
      <trkpt lat="46.94707" lon="-0.87323">
        <ele>160</ele>
        <time>2023-11-13T08:37:42Z</time>
      </trkpt>
      <trkpt lat="46.9469" lon="-0.8731">
        <ele>161</ele>
        <time>2023-11-13T08:38:08Z</time>
      </trkpt>
      <trkpt lat="46.94606" lon="-0.87202">
        <ele>165</ele>
        <time>2023-11-13T08:40:37Z</time>
      </trkpt>
      <trkpt lat="46.94593" lon="-0.87182">
        <ele>166</ele>
        <time>2023-11-13T08:41:02Z</time>
      </trkpt>
      <trkpt lat="46.94514" lon="-0.87035">
        <ele>171</ele>
        <time>2023-11-13T08:43:53Z</time>
      </trkpt>
      <trkpt lat="46.94488" lon="-0.86995">
        <ele>171</ele>
        <time>2023-11-13T08:44:43Z</time>
      </trkpt>
      <trkpt lat="46.94433" lon="-0.86923">
        <ele>167</ele>
        <time>2023-11-13T08:46:21Z</time>
      </trkpt>
      <trkpt lat="46.94369" lon="-0.86822">
        <ele>165</ele>
        <time>2023-11-13T08:48:27Z</time>
      </trkpt>
      <trkpt lat="46.94354" lon="-0.86804">
        <ele>165</ele>
        <time>2023-11-13T08:48:53Z</time>
      </trkpt>
      <trkpt lat="46.94323" lon="-0.86774">
        <ele>164</ele>
        <time>2023-11-13T08:49:42Z</time>
      </trkpt>
      <trkpt lat="46.94306" lon="-0.86763">
        <ele>164</ele>
        <time>2023-11-13T08:50:07Z</time>
      </trkpt>
      <trkpt lat="46.94277" lon="-0.86729">
        <ele>164</ele>
        <time>2023-11-13T08:50:57Z</time>
      </trkpt>
      <trkpt lat="46.94182" lon="-0.866">
        <ele>161</ele>
        <time>2023-11-13T08:53:50Z</time>
      </trkpt>
      <trkpt lat="46.94168" lon="-0.86584">
        <ele>160</ele>
        <time>2023-11-13T08:54:13Z</time>
      </trkpt>
      <trkpt lat="46.94121" lon="-0.8654">
        <ele>158</ele>
        <time>2023-11-13T08:55:28Z</time>
      </trkpt>
      <trkpt lat="46.94019" lon="-0.8647">
        <ele>152</ele>
        <time>2023-11-13T08:57:58Z</time>
      </trkpt>
      <trkpt lat="46.94003" lon="-0.86456">
        <ele>151</ele>
        <time>2023-11-13T08:58:23Z</time>
      </trkpt>
      <trkpt lat="46.93989" lon="-0.86439">
        <ele>151</ele>
        <time>2023-11-13T08:58:47Z</time>
      </trkpt>
      <trkpt lat="46.93976" lon="-0.8642">
        <ele>151</ele>
        <time>2023-11-13T08:59:12Z</time>
      </trkpt>
      <trkpt lat="46.9396" lon="-0.86371">
        <ele>153</ele>
        <time>2023-11-13T09:00:01Z</time>
      </trkpt>
      <trkpt lat="46.93951" lon="-0.86318">
        <ele>154</ele>
        <time>2023-11-13T09:00:51Z</time>
      </trkpt>
      <trkpt lat="46.93905" lon="-0.86232">
        <ele>155</ele>
        <time>2023-11-13T09:02:31Z</time>
      </trkpt>
      <trkpt lat="46.93891" lon="-0.86213">
        <ele>155</ele>
        <time>2023-11-13T09:02:56Z</time>
      </trkpt>
      <trkpt lat="46.93752" lon="-0.86074">
        <ele>160</ele>
        <time>2023-11-13T09:06:41Z</time>
      </trkpt>
      <trkpt lat="46.93723" lon="-0.8604">
        <ele>162</ele>
        <time>2023-11-13T09:07:30Z</time>
      </trkpt>
      <trkpt lat="46.93706" lon="-0.86028">
        <ele>163</ele>
        <time>2023-11-13T09:07:55Z</time>
      </trkpt>
      <trkpt lat="46.93692" lon="-0.86009">
        <ele>165</ele>
        <time>2023-11-13T09:08:21Z</time>
      </trkpt>
      <trkpt lat="46.93624" lon="-0.85967">
        <ele>166</ele>
        <time>2023-11-13T09:09:59Z</time>
      </trkpt>
      <trkpt lat="46.93606" lon="-0.85974">
        <ele>166</ele>
        <time>2023-11-13T09:10:24Z</time>
      </trkpt>
      <trkpt lat="46.93604" lon="-0.86028">
        <ele>166</ele>
        <time>2023-11-13T09:11:13Z</time>
      </trkpt>
      <trkpt lat="46.93586" lon="-0.8603">
        <ele>166</ele>
        <time>2023-11-13T09:11:38Z</time>
      </trkpt>
      <trkpt lat="46.93535" lon="-0.86059">
        <ele>164</ele>
        <time>2023-11-13T09:12:51Z</time>
      </trkpt>
      <trkpt lat="46.93469" lon="-0.86109">
        <ele>162</ele>
        <time>2023-11-13T09:14:30Z</time>
      </trkpt>
      <trkpt lat="46.93454" lon="-0.86125">
        <ele>162</ele>
        <time>2023-11-13T09:14:55Z</time>
      </trkpt>
      <trkpt lat="46.93428" lon="-0.86163">
        <ele>163</ele>
        <time>2023-11-13T09:15:44Z</time>
      </trkpt>
      <trkpt lat="46.93388" lon="-0.86254">
        <ele>160</ele>
        <time>2023-11-13T09:17:22Z</time>
      </trkpt>
      <trkpt lat="46.93369" lon="-0.86303">
        <ele>158</ele>
        <time>2023-11-13T09:18:13Z</time>
      </trkpt>
      <trkpt lat="46.93361" lon="-0.86328">
        <ele>158</ele>
        <time>2023-11-13T09:18:39Z</time>
      </trkpt>
      <trkpt lat="46.93358" lon="-0.86354">
        <ele>158</ele>
        <time>2023-11-13T09:19:03Z</time>
      </trkpt>
      <trkpt lat="46.93357" lon="-0.86435">
        <ele>157</ele>
        <time>2023-11-13T09:20:16Z</time>
      </trkpt>
      <trkpt lat="46.93362" lon="-0.86461">
        <ele>156</ele>
        <time>2023-11-13T09:20:41Z</time>
      </trkpt>
      <trkpt lat="46.93395" lon="-0.86526">
        <ele>152</ele>
        <time>2023-11-13T09:21:55Z</time>
      </trkpt>
      <trkpt lat="46.93427" lon="-0.86554">
        <ele>149</ele>
        <time>2023-11-13T09:22:45Z</time>
      </trkpt>
      <trkpt lat="46.93446" lon="-0.8656">
        <ele>148</ele>
        <time>2023-11-13T09:23:11Z</time>
      </trkpt>
      <trkpt lat="46.93456" lon="-0.86582">
        <ele>147</ele>
        <time>2023-11-13T09:23:35Z</time>
      </trkpt>
      <trkpt lat="46.93442" lon="-0.86661">
        <ele>139</ele>
        <time>2023-11-13T09:24:49Z</time>
      </trkpt>
      <trkpt lat="46.93421" lon="-0.86739">
        <ele>131</ele>
        <time>2023-11-13T09:26:05Z</time>
      </trkpt>
      <trkpt lat="46.93411" lon="-0.86791">
        <ele>127</ele>
        <time>2023-11-13T09:26:55Z</time>
      </trkpt>
      <trkpt lat="46.93399" lon="-0.86813">
        <ele>126</ele>
        <time>2023-11-13T09:27:20Z</time>
      </trkpt>
      <trkpt lat="46.93386" lon="-0.86832">
        <ele>125</ele>
        <time>2023-11-13T09:27:45Z</time>
      </trkpt>
      <trkpt lat="46.93355" lon="-0.86859">
        <ele>125</ele>
        <time>2023-11-13T09:28:33Z</time>
      </trkpt>
      <trkpt lat="46.93336" lon="-0.86864">
        <ele>125</ele>
        <time>2023-11-13T09:28:59Z</time>
      </trkpt>
      <trkpt lat="46.93299" lon="-0.86863">
        <ele>126</ele>
        <time>2023-11-13T09:29:48Z</time>
      </trkpt>
      <trkpt lat="46.93281" lon="-0.86872">
        <ele>125</ele>
        <time>2023-11-13T09:30:14Z</time>
      </trkpt>
      <trkpt lat="46.93264" lon="-0.86862">
        <ele>126</ele>
        <time>2023-11-13T09:30:38Z</time>
      </trkpt>
      <trkpt lat="46.93228" lon="-0.86856">
        <ele>126</ele>
        <time>2023-11-13T09:31:26Z</time>
      </trkpt>
      <trkpt lat="46.93192" lon="-0.8684">
        <ele>126</ele>
        <time>2023-11-13T09:32:17Z</time>
      </trkpt>
      <trkpt lat="46.93174" lon="-0.86835">
        <ele>126</ele>
        <time>2023-11-13T09:32:41Z</time>
      </trkpt>
      <trkpt lat="46.93155" lon="-0.86838">
        <ele>125</ele>
        <time>2023-11-13T09:33:06Z</time>
      </trkpt>
      <trkpt lat="46.93138" lon="-0.86829">
        <ele>125</ele>
        <time>2023-11-13T09:33:31Z</time>
      </trkpt>
      <trkpt lat="46.93127" lon="-0.86807">
        <ele>125</ele>
        <time>2023-11-13T09:33:55Z</time>
      </trkpt>
      <trkpt lat="46.93131" lon="-0.86781">
        <ele>127</ele>
        <time>2023-11-13T09:34:20Z</time>
      </trkpt>
      <trkpt lat="46.93119" lon="-0.8673">
        <ele>127</ele>
        <time>2023-11-13T09:35:09Z</time>
      </trkpt>
      <trkpt lat="46.93071" lon="-0.86585">
        <ele>124</ele>
        <time>2023-11-13T09:37:36Z</time>
      </trkpt>
      <trkpt lat="46.93054" lon="-0.86577">
        <ele>124</ele>
        <time>2023-11-13T09:38:00Z</time>
      </trkpt>
      <trkpt lat="46.93035" lon="-0.86584">
        <ele>123</ele>
        <time>2023-11-13T09:38:26Z</time>
      </trkpt>
      <trkpt lat="46.92983" lon="-0.86612">
        <ele>121</ele>
        <time>2023-11-13T09:39:40Z</time>
      </trkpt>
      <trkpt lat="46.92965" lon="-0.86605">
        <ele>121</ele>
        <time>2023-11-13T09:40:04Z</time>
      </trkpt>
      <trkpt lat="46.92934" lon="-0.86573">
        <ele>123</ele>
        <time>2023-11-13T09:40:55Z</time>
      </trkpt>
      <trkpt lat="46.92887" lon="-0.86531">
        <ele>127</ele>
        <time>2023-11-13T09:42:09Z</time>
      </trkpt>
      <trkpt lat="46.92869" lon="-0.8653">
        <ele>129</ele>
        <time>2023-11-13T09:42:33Z</time>
      </trkpt>
      <trkpt lat="46.92851" lon="-0.8654">
        <ele>131</ele>
        <time>2023-11-13T09:42:58Z</time>
      </trkpt>
      <trkpt lat="46.9282" lon="-0.86571">
        <ele>135</ele>
        <time>2023-11-13T09:43:48Z</time>
      </trkpt>
      <trkpt lat="46.92809" lon="-0.86592">
        <ele>137</ele>
        <time>2023-11-13T09:44:13Z</time>
      </trkpt>
      <trkpt lat="46.92791" lon="-0.86601">
        <ele>142</ele>
        <time>2023-11-13T09:44:38Z</time>
      </trkpt>
      <trkpt lat="46.92774" lon="-0.8659">
        <ele>148</ele>
        <time>2023-11-13T09:45:03Z</time>
      </trkpt>
      <trkpt lat="46.92756" lon="-0.86587">
        <ele>153</ele>
        <time>2023-11-13T09:45:27Z</time>
      </trkpt>
      <trkpt lat="46.92739" lon="-0.86577">
        <ele>157</ele>
        <time>2023-11-13T09:45:51Z</time>
      </trkpt>
      <trkpt lat="46.92721" lon="-0.86572">
        <ele>159</ele>
        <time>2023-11-13T09:46:16Z</time>
      </trkpt>
      <trkpt lat="46.92702" lon="-0.8657">
        <ele>161</ele>
        <time>2023-11-13T09:46:41Z</time>
      </trkpt>
      <trkpt lat="46.92684" lon="-0.86576">
        <ele>163</ele>
        <time>2023-11-13T09:47:06Z</time>
      </trkpt>
      <trkpt lat="46.92654" lon="-0.86606">
        <ele>165</ele>
        <time>2023-11-13T09:47:54Z</time>
      </trkpt>
      <trkpt lat="46.92636" lon="-0.86616">
        <ele>166</ele>
        <time>2023-11-13T09:48:20Z</time>
      </trkpt>
      <trkpt lat="46.92581" lon="-0.86627">
        <ele>169</ele>
        <time>2023-11-13T09:49:34Z</time>
      </trkpt>
      <trkpt lat="46.92563" lon="-0.86633">
        <ele>171</ele>
        <time>2023-11-13T09:49:59Z</time>
      </trkpt>
      <trkpt lat="46.92526" lon="-0.86638">
        <ele>174</ele>
        <time>2023-11-13T09:50:48Z</time>
      </trkpt>
      <trkpt lat="46.92508" lon="-0.86637">
        <ele>176</ele>
        <time>2023-11-13T09:51:12Z</time>
      </trkpt>
      <trkpt lat="46.9249" lon="-0.86632">
        <ele>178</ele>
        <time>2023-11-13T09:51:37Z</time>
      </trkpt>
      <trkpt lat="46.92452" lon="-0.86631">
        <ele>180</ele>
        <time>2023-11-13T09:52:27Z</time>
      </trkpt>
      <trkpt lat="46.92415" lon="-0.86633">
        <ele>182</ele>
        <time>2023-11-13T09:53:17Z</time>
      </trkpt>
      <trkpt lat="46.92397" lon="-0.86626">
        <ele>183</ele>
        <time>2023-11-13T09:53:42Z</time>
      </trkpt>
      <trkpt lat="46.92381" lon="-0.86614">
        <ele>184</ele>
        <time>2023-11-13T09:54:06Z</time>
      </trkpt>
      <trkpt lat="46.92368" lon="-0.86594">
        <ele>186</ele>
        <time>2023-11-13T09:54:31Z</time>
      </trkpt>
      <trkpt lat="46.9235" lon="-0.86585">
        <ele>186</ele>
        <time>2023-11-13T09:54:56Z</time>
      </trkpt>
      <trkpt lat="46.92297" lon="-0.8661">
        <ele>187</ele>
        <time>2023-11-13T09:56:11Z</time>
      </trkpt>
      <trkpt lat="46.92261" lon="-0.86617">
        <ele>186</ele>
        <time>2023-11-13T09:56:59Z</time>
      </trkpt>
      <trkpt lat="46.92193" lon="-0.86659">
        <ele>184</ele>
        <time>2023-11-13T09:58:38Z</time>
      </trkpt>
      <trkpt lat="46.92175" lon="-0.86665">
        <ele>183</ele>
        <time>2023-11-13T09:59:02Z</time>
      </trkpt>
      <trkpt lat="46.92139" lon="-0.8667">
        <ele>182</ele>
        <time>2023-11-13T09:59:50Z</time>
      </trkpt>
      <trkpt lat="46.92102" lon="-0.86668">
        <ele>180</ele>
        <time>2023-11-13T10:00:40Z</time>
      </trkpt>
      <trkpt lat="46.92028" lon="-0.86653">
        <ele>177</ele>
        <time>2023-11-13T10:02:20Z</time>
      </trkpt>
      <trkpt lat="46.91973" lon="-0.86652">
        <ele>174</ele>
        <time>2023-11-13T10:03:33Z</time>
      </trkpt>
      <trkpt lat="46.91936" lon="-0.86647">
        <ele>172</ele>
        <time>2023-11-13T10:04:23Z</time>
      </trkpt>
      <trkpt lat="46.91919" lon="-0.86637">
        <ele>171</ele>
        <time>2023-11-13T10:04:47Z</time>
      </trkpt>
      <trkpt lat="46.91902" lon="-0.86647">
        <ele>169</ele>
        <time>2023-11-13T10:05:11Z</time>
      </trkpt>
      <trkpt lat="46.91884" lon="-0.86648">
        <ele>168</ele>
        <time>2023-11-13T10:05:35Z</time>
      </trkpt>
      <trkpt lat="46.91829" lon="-0.86642">
        <ele>163</ele>
        <time>2023-11-13T10:06:49Z</time>
      </trkpt>
      <trkpt lat="46.91794" lon="-0.86633">
        <ele>162</ele>
        <time>2023-11-13T10:07:36Z</time>
      </trkpt>
      <trkpt lat="46.91741" lon="-0.86607">
        <ele>159</ele>
        <time>2023-11-13T10:08:51Z</time>
      </trkpt>
      <trkpt lat="46.91725" lon="-0.86595">
        <ele>158</ele>
        <time>2023-11-13T10:09:15Z</time>
      </trkpt>
      <trkpt lat="46.91696" lon="-0.86562">
        <ele>156</ele>
        <time>2023-11-13T10:10:04Z</time>
      </trkpt>
      <trkpt lat="46.91644" lon="-0.86531">
        <ele>153</ele>
        <time>2023-11-13T10:11:19Z</time>
      </trkpt>
      <trkpt lat="46.91631" lon="-0.8651">
        <ele>152</ele>
        <time>2023-11-13T10:11:45Z</time>
      </trkpt>
      <trkpt lat="46.91612" lon="-0.86508">
        <ele>151</ele>
        <time>2023-11-13T10:12:10Z</time>
      </trkpt>
      <trkpt lat="46.9156" lon="-0.86537">
        <ele>148</ele>
        <time>2023-11-13T10:13:25Z</time>
      </trkpt>
      <trkpt lat="46.91527" lon="-0.86562">
        <ele>148</ele>
        <time>2023-11-13T10:14:14Z</time>
      </trkpt>
      <trkpt lat="46.91509" lon="-0.86571">
        <ele>147</ele>
        <time>2023-11-13T10:14:39Z</time>
      </trkpt>
      <trkpt lat="46.91494" lon="-0.86586">
        <ele>147</ele>
        <time>2023-11-13T10:15:04Z</time>
      </trkpt>
      <trkpt lat="46.91461" lon="-0.8661">
        <ele>144</ele>
        <time>2023-11-13T10:15:53Z</time>
      </trkpt>
      <trkpt lat="46.91429" lon="-0.86639">
        <ele>142</ele>
        <time>2023-11-13T10:16:43Z</time>
      </trkpt>
      <trkpt lat="46.91396" lon="-0.86664">
        <ele>141</ele>
        <time>2023-11-13T10:17:33Z</time>
      </trkpt>
      <trkpt lat="46.91378" lon="-0.86671">
        <ele>141</ele>
        <time>2023-11-13T10:17:58Z</time>
      </trkpt>
      <trkpt lat="46.91362" lon="-0.86658">
        <ele>141</ele>
        <time>2023-11-13T10:18:22Z</time>
      </trkpt>
      <trkpt lat="46.91304" lon="-0.8659">
        <ele>138</ele>
        <time>2023-11-13T10:20:01Z</time>
      </trkpt>
      <trkpt lat="46.91286" lon="-0.86579">
        <ele>137</ele>
        <time>2023-11-13T10:20:27Z</time>
      </trkpt>
      <trkpt lat="46.91256" lon="-0.86548">
        <ele>136</ele>
        <time>2023-11-13T10:21:16Z</time>
      </trkpt>
      <trkpt lat="46.91239" lon="-0.86538">
        <ele>136</ele>
        <time>2023-11-13T10:21:41Z</time>
      </trkpt>
      <trkpt lat="46.91221" lon="-0.86535">
        <ele>137</ele>
        <time>2023-11-13T10:22:05Z</time>
      </trkpt>
      <trkpt lat="46.91202" lon="-0.8654">
        <ele>138</ele>
        <time>2023-11-13T10:22:31Z</time>
      </trkpt>
      <trkpt lat="46.91184" lon="-0.86539">
        <ele>138</ele>
        <time>2023-11-13T10:22:55Z</time>
      </trkpt>
      <trkpt lat="46.91183" lon="-0.86513">
        <ele>139</ele>
        <time>2023-11-13T10:23:18Z</time>
      </trkpt>
      <trkpt lat="46.91198" lon="-0.86498">
        <ele>139</ele>
        <time>2023-11-13T10:23:43Z</time>
      </trkpt>
      <trkpt lat="46.91205" lon="-0.86473">
        <ele>141</ele>
        <time>2023-11-13T10:24:07Z</time>
      </trkpt>
      <trkpt lat="46.91222" lon="-0.86449">
        <ele>142</ele>
        <time>2023-11-13T10:24:39Z</time>
      </trkpt>
      <trkpt lat="46.91204" lon="-0.86448">
        <ele>143</ele>
        <time>2023-11-13T10:25:03Z</time>
      </trkpt>
      <trkpt lat="46.91206" lon="-0.8642">
        <ele>146</ele>
        <time>2023-11-13T10:25:28Z</time>
      </trkpt>
      <trkpt lat="46.91204" lon="-0.86392">
        <ele>147</ele>
        <time>2023-11-13T10:25:54Z</time>
      </trkpt>
      <trkpt lat="46.91166" lon="-0.86388">
        <ele>149</ele>
        <time>2023-11-13T10:26:45Z</time>
      </trkpt>
      <trkpt lat="46.91148" lon="-0.86397">
        <ele>149</ele>
        <time>2023-11-13T10:27:10Z</time>
      </trkpt>
      <trkpt lat="46.91131" lon="-0.86409">
        <ele>148</ele>
        <time>2023-11-13T10:27:35Z</time>
      </trkpt>
      <trkpt lat="46.91114" lon="-0.86396">
        <ele>149</ele>
        <time>2023-11-13T10:28:01Z</time>
      </trkpt>
      <trkpt lat="46.91097" lon="-0.86388">
        <ele>149</ele>
        <time>2023-11-13T10:28:25Z</time>
      </trkpt>
      <trkpt lat="46.9106" lon="-0.86379">
        <ele>150</ele>
        <time>2023-11-13T10:29:15Z</time>
      </trkpt>
      <trkpt lat="46.91081" lon="-0.86384">
        <ele>149</ele>
        <time>2023-11-13T10:29:43Z</time>
      </trkpt>
      <trkpt lat="46.91064" lon="-0.86376">
        <ele>150</ele>
        <time>2023-11-13T10:30:07Z</time>
      </trkpt>
      <trkpt lat="46.91008" lon="-0.86382">
        <ele>152</ele>
        <time>2023-11-13T10:31:22Z</time>
      </trkpt>
      <trkpt lat="46.90989" lon="-0.86381">
        <ele>152</ele>
        <time>2023-11-13T10:31:47Z</time>
      </trkpt>
      <trkpt lat="46.90972" lon="-0.86388">
        <ele>151</ele>
        <time>2023-11-13T10:32:11Z</time>
      </trkpt>
      <trkpt lat="46.90954" lon="-0.86383">
        <ele>150</ele>
        <time>2023-11-13T10:32:36Z</time>
      </trkpt>
      <trkpt lat="46.90937" lon="-0.86374">
        <ele>150</ele>
        <time>2023-11-13T10:33:00Z</time>
      </trkpt>
      <trkpt lat="46.90922" lon="-0.86357">
        <ele>150</ele>
        <time>2023-11-13T10:33:25Z</time>
      </trkpt>
      <trkpt lat="46.90909" lon="-0.86337">
        <ele>151</ele>
        <time>2023-11-13T10:33:50Z</time>
      </trkpt>
      <trkpt lat="46.90891" lon="-0.8634">
        <ele>150</ele>
        <time>2023-11-13T10:34:14Z</time>
      </trkpt>
      <trkpt lat="46.90884" lon="-0.86365">
        <ele>149</ele>
        <time>2023-11-13T10:34:39Z</time>
      </trkpt>
      <trkpt lat="46.90874" lon="-0.86388">
        <ele>147</ele>
        <time>2023-11-13T10:35:04Z</time>
      </trkpt>
      <trkpt lat="46.90869" lon="-0.86415">
        <ele>145</ele>
        <time>2023-11-13T10:35:29Z</time>
      </trkpt>
      <trkpt lat="46.90846" lon="-0.86491">
        <ele>135</ele>
        <time>2023-11-13T10:36:45Z</time>
      </trkpt>
      <trkpt lat="46.90855" lon="-0.86514">
        <ele>134</ele>
        <time>2023-11-13T10:37:09Z</time>
      </trkpt>
      <trkpt lat="46.9088" lon="-0.86534">
        <ele>135</ele>
        <time>2023-11-13T10:37:47Z</time>
      </trkpt>
      <trkpt lat="46.90901" lon="-0.86533">
        <ele>136</ele>
        <time>2023-11-13T10:38:15Z</time>
      </trkpt>
      <trkpt lat="46.90937" lon="-0.86541">
        <ele>136</ele>
        <time>2023-11-13T10:39:04Z</time>
      </trkpt>
      <trkpt lat="46.90966" lon="-0.86552">
        <ele>133</ele>
        <time>2023-11-13T10:39:44Z</time>
      </trkpt>
      <trkpt lat="46.91013" lon="-0.8654">
        <ele>134</ele>
        <time>2023-11-13T10:40:48Z</time>
      </trkpt>
      <trkpt lat="46.91052" lon="-0.8655">
        <ele>132</ele>
        <time>2023-11-13T10:41:40Z</time>
      </trkpt>
      <trkpt lat="46.9107" lon="-0.86559">
        <ele>131</ele>
        <time>2023-11-13T10:42:06Z</time>
      </trkpt>
      <trkpt lat="46.91088" lon="-0.86564">
        <ele>131</ele>
        <time>2023-11-13T10:42:30Z</time>
      </trkpt>
      <trkpt lat="46.91106" lon="-0.86553">
        <ele>133</ele>
        <time>2023-11-13T10:42:56Z</time>
      </trkpt>
      <trkpt lat="46.9112" lon="-0.86604">
        <ele>132</ele>
        <time>2023-11-13T10:43:46Z</time>
      </trkpt>
      <trkpt lat="46.9112" lon="-0.86631">
        <ele>131</ele>
        <time>2023-11-13T10:44:11Z</time>
      </trkpt>
      <trkpt lat="46.91115" lon="-0.8669">
        <ele>130</ele>
        <time>2023-11-13T10:45:05Z</time>
      </trkpt>
      <trkpt lat="46.91123" lon="-0.86714">
        <ele>130</ele>
        <time>2023-11-13T10:45:29Z</time>
      </trkpt>
      <trkpt lat="46.91139" lon="-0.86729">
        <ele>130</ele>
        <time>2023-11-13T10:45:55Z</time>
      </trkpt>
      <trkpt lat="46.91157" lon="-0.86738">
        <ele>130</ele>
        <time>2023-11-13T10:46:20Z</time>
      </trkpt>
      <trkpt lat="46.91176" lon="-0.86736">
        <ele>131</ele>
        <time>2023-11-13T10:46:46Z</time>
      </trkpt>
      <trkpt lat="46.91183" lon="-0.86761">
        <ele>131</ele>
        <time>2023-11-13T10:47:10Z</time>
      </trkpt>
      <trkpt lat="46.91199" lon="-0.86773">
        <ele>131</ele>
        <time>2023-11-13T10:47:34Z</time>
      </trkpt>
      <trkpt lat="46.91206" lon="-0.86799">
        <ele>131</ele>
        <time>2023-11-13T10:48:00Z</time>
      </trkpt>
      <trkpt lat="46.91217" lon="-0.86821">
        <ele>131</ele>
        <time>2023-11-13T10:48:25Z</time>
      </trkpt>
      <trkpt lat="46.91229" lon="-0.86842">
        <ele>130</ele>
        <time>2023-11-13T10:48:50Z</time>
      </trkpt>
      <trkpt lat="46.91244" lon="-0.8686">
        <ele>130</ele>
        <time>2023-11-13T10:49:15Z</time>
      </trkpt>
      <trkpt lat="46.9126" lon="-0.86874">
        <ele>129</ele>
        <time>2023-11-13T10:49:40Z</time>
      </trkpt>
      <trkpt lat="46.91279" lon="-0.86876">
        <ele>129</ele>
        <time>2023-11-13T10:50:06Z</time>
      </trkpt>
      <trkpt lat="46.91318" lon="-0.86887">
        <ele>129</ele>
        <time>2023-11-13T10:50:59Z</time>
      </trkpt>
      <trkpt lat="46.91333" lon="-0.86901">
        <ele>128</ele>
        <time>2023-11-13T10:51:22Z</time>
      </trkpt>
      <trkpt lat="46.91338" lon="-0.86927">
        <ele>127</ele>
        <time>2023-11-13T10:51:47Z</time>
      </trkpt>
      <trkpt lat="46.91343" lon="-0.86984">
        <ele>126</ele>
        <time>2023-11-13T10:52:39Z</time>
      </trkpt>
      <trkpt lat="46.91354" lon="-0.87005">
        <ele>126</ele>
        <time>2023-11-13T10:53:04Z</time>
      </trkpt>
      <trkpt lat="46.91371" lon="-0.87015">
        <ele>126</ele>
        <time>2023-11-13T10:53:28Z</time>
      </trkpt>
      <trkpt lat="46.91389" lon="-0.87022">
        <ele>127</ele>
        <time>2023-11-13T10:53:53Z</time>
      </trkpt>
      <trkpt lat="46.91441" lon="-0.87055">
        <ele>126</ele>
        <time>2023-11-13T10:55:09Z</time>
      </trkpt>
      <trkpt lat="46.91492" lon="-0.87145">
        <ele>125</ele>
        <time>2023-11-13T10:56:55Z</time>
      </trkpt>
      <trkpt lat="46.91499" lon="-0.87172">
        <ele>124</ele>
        <time>2023-11-13T10:57:21Z</time>
      </trkpt>
      <trkpt lat="46.91536" lon="-0.87266">
        <ele>124</ele>
        <time>2023-11-13T10:59:00Z</time>
      </trkpt>
      <trkpt lat="46.91577" lon="-0.8732">
        <ele>124</ele>
        <time>2023-11-13T11:00:14Z</time>
      </trkpt>
      <trkpt lat="46.91593" lon="-0.87336">
        <ele>124</ele>
        <time>2023-11-13T11:00:40Z</time>
      </trkpt>
      <trkpt lat="46.9161" lon="-0.87348">
        <ele>125</ele>
        <time>2023-11-13T11:01:05Z</time>
      </trkpt>
      <trkpt lat="46.91624" lon="-0.87365">
        <ele>125</ele>
        <time>2023-11-13T11:01:29Z</time>
      </trkpt>
      <trkpt lat="46.9163" lon="-0.87389">
        <ele>126</ele>
        <time>2023-11-13T11:01:53Z</time>
      </trkpt>
      <trkpt lat="46.91647" lon="-0.87404">
        <ele>125</ele>
        <time>2023-11-13T11:02:19Z</time>
      </trkpt>
      <trkpt lat="46.91735" lon="-0.87446">
        <ele>126</ele>
        <time>2023-11-13T11:04:23Z</time>
      </trkpt>
      <trkpt lat="46.91772" lon="-0.87446">
        <ele>126</ele>
        <time>2023-11-13T11:05:12Z</time>
      </trkpt>
      <trkpt lat="46.9183" lon="-0.87452">
        <ele>126</ele>
        <time>2023-11-13T11:06:30Z</time>
      </trkpt>
      <trkpt lat="46.91848" lon="-0.87447">
        <ele>127</ele>
        <time>2023-11-13T11:06:54Z</time>
      </trkpt>
      <trkpt lat="46.91867" lon="-0.87448">
        <ele>128</ele>
        <time>2023-11-13T11:07:19Z</time>
      </trkpt>
      <trkpt lat="46.91885" lon="-0.87453">
        <ele>128</ele>
        <time>2023-11-13T11:07:44Z</time>
      </trkpt>
      <trkpt lat="46.91921" lon="-0.87444">
        <ele>130</ele>
        <time>2023-11-13T11:08:33Z</time>
      </trkpt>
      <trkpt lat="46.91941" lon="-0.87443">
        <ele>130</ele>
        <time>2023-11-13T11:08:59Z</time>
      </trkpt>
      <trkpt lat="46.91957" lon="-0.87429">
        <ele>130</ele>
        <time>2023-11-13T11:09:24Z</time>
      </trkpt>
      <trkpt lat="46.91981" lon="-0.8739">
        <ele>131</ele>
        <time>2023-11-13T11:10:12Z</time>
      </trkpt>
      <trkpt lat="46.92011" lon="-0.87359">
        <ele>130</ele>
        <time>2023-11-13T11:11:01Z</time>
      </trkpt>
      <trkpt lat="46.92066" lon="-0.87342">
        <ele>128</ele>
        <time>2023-11-13T11:12:16Z</time>
      </trkpt>
      <trkpt lat="46.92087" lon="-0.87333">
        <ele>127</ele>
        <time>2023-11-13T11:12:45Z</time>
      </trkpt>
      <trkpt lat="46.9209" lon="-0.87307">
        <ele>130</ele>
        <time>2023-11-13T11:13:09Z</time>
      </trkpt>
      <trkpt lat="46.92091" lon="-0.87278">
        <ele>133</ele>
        <time>2023-11-13T11:13:36Z</time>
      </trkpt>
      <trkpt lat="46.92085" lon="-0.87254">
        <ele>136</ele>
        <time>2023-11-13T11:13:59Z</time>
      </trkpt>
      <trkpt lat="46.92068" lon="-0.87239">
        <ele>139</ele>
        <time>2023-11-13T11:14:25Z</time>
      </trkpt>
      <trkpt lat="46.9205" lon="-0.87234">
        <ele>141</ele>
        <time>2023-11-13T11:14:50Z</time>
      </trkpt>
      <trkpt lat="46.92032" lon="-0.87239">
        <ele>142</ele>
        <time>2023-11-13T11:15:14Z</time>
      </trkpt>
      <trkpt lat="46.92025" lon="-0.87215">
        <ele>145</ele>
        <time>2023-11-13T11:15:38Z</time>
      </trkpt>
      <trkpt lat="46.92011" lon="-0.87199">
        <ele>147</ele>
        <time>2023-11-13T11:16:02Z</time>
      </trkpt>
      <trkpt lat="46.92002" lon="-0.87175">
        <ele>149</ele>
        <time>2023-11-13T11:16:27Z</time>
      </trkpt>
      <trkpt lat="46.92004" lon="-0.87094">
        <ele>153</ele>
        <time>2023-11-13T11:17:41Z</time>
      </trkpt>
      <trkpt lat="46.91995" lon="-0.8707">
        <ele>153</ele>
        <time>2023-11-13T11:18:06Z</time>
      </trkpt>
      <trkpt lat="46.91951" lon="-0.8702">
        <ele>150</ele>
        <time>2023-11-13T11:19:20Z</time>
      </trkpt>
      <trkpt lat="46.91948" lon="-0.86992">
        <ele>151</ele>
        <time>2023-11-13T11:19:46Z</time>
      </trkpt>
      <trkpt lat="46.91961" lon="-0.86941">
        <ele>155</ele>
        <time>2023-11-13T11:20:35Z</time>
      </trkpt>
      <trkpt lat="46.91965" lon="-0.86915">
        <ele>157</ele>
        <time>2023-11-13T11:21:00Z</time>
      </trkpt>
      <trkpt lat="46.91962" lon="-0.86888">
        <ele>158</ele>
        <time>2023-11-13T11:21:25Z</time>
      </trkpt>
      <trkpt lat="46.91964" lon="-0.86861">
        <ele>160</ele>
        <time>2023-11-13T11:21:49Z</time>
      </trkpt>
      <trkpt lat="46.91953" lon="-0.8681">
        <ele>162</ele>
        <time>2023-11-13T11:22:38Z</time>
      </trkpt>
      <trkpt lat="46.91951" lon="-0.86783">
        <ele>164</ele>
        <time>2023-11-13T11:23:03Z</time>
      </trkpt>
      <trkpt lat="46.91933" lon="-0.86679">
        <ele>170</ele>
        <time>2023-11-13T11:24:41Z</time>
      </trkpt>
      <trkpt lat="46.91931" lon="-0.86653">
        <ele>171</ele>
        <time>2023-11-13T11:25:05Z</time>
      </trkpt>
      <trkpt lat="46.91949" lon="-0.86647">
        <ele>172</ele>
        <time>2023-11-13T11:25:29Z</time>
      </trkpt>
      <trkpt lat="46.91986" lon="-0.86652">
        <ele>175</ele>
        <time>2023-11-13T11:26:19Z</time>
      </trkpt>
      <trkpt lat="46.92023" lon="-0.86652">
        <ele>176</ele>
        <time>2023-11-13T11:27:08Z</time>
      </trkpt>
      <trkpt lat="46.92077" lon="-0.86665">
        <ele>179</ele>
        <time>2023-11-13T11:28:21Z</time>
      </trkpt>
      <trkpt lat="46.92152" lon="-0.86671">
        <ele>182</ele>
        <time>2023-11-13T11:30:01Z</time>
      </trkpt>
      <trkpt lat="46.9219" lon="-0.86663">
        <ele>184</ele>
        <time>2023-11-13T11:30:53Z</time>
      </trkpt>
      <trkpt lat="46.92242" lon="-0.86634">
        <ele>186</ele>
        <time>2023-11-13T11:32:07Z</time>
      </trkpt>
      <trkpt lat="46.92258" lon="-0.86621">
        <ele>186</ele>
        <time>2023-11-13T11:32:31Z</time>
      </trkpt>
      <trkpt lat="46.92275" lon="-0.86612">
        <ele>186</ele>
        <time>2023-11-13T11:32:55Z</time>
      </trkpt>
      <trkpt lat="46.92312" lon="-0.86605">
        <ele>187</ele>
        <time>2023-11-13T11:33:45Z</time>
      </trkpt>
      <trkpt lat="46.92347" lon="-0.86588">
        <ele>186</ele>
        <time>2023-11-13T11:34:34Z</time>
      </trkpt>
      <trkpt lat="46.92379" lon="-0.86615">
        <ele>185</ele>
        <time>2023-11-13T11:35:24Z</time>
      </trkpt>
      <trkpt lat="46.92414" lon="-0.86632">
        <ele>182</ele>
        <time>2023-11-13T11:36:13Z</time>
      </trkpt>
      <trkpt lat="46.92509" lon="-0.86632">
        <ele>176</ele>
        <time>2023-11-13T11:38:20Z</time>
      </trkpt>
      <trkpt lat="46.9253" lon="-0.86639">
        <ele>174</ele>
        <time>2023-11-13T11:38:48Z</time>
      </trkpt>
      <trkpt lat="46.92548" lon="-0.8664">
        <ele>172</ele>
        <time>2023-11-13T11:39:12Z</time>
      </trkpt>
      <trkpt lat="46.92565" lon="-0.86631">
        <ele>171</ele>
        <time>2023-11-13T11:39:37Z</time>
      </trkpt>
      <trkpt lat="46.92639" lon="-0.86613">
        <ele>165</ele>
        <time>2023-11-13T11:41:17Z</time>
      </trkpt>
      <trkpt lat="46.92658" lon="-0.86605">
        <ele>165</ele>
        <time>2023-11-13T11:41:43Z</time>
      </trkpt>
      <trkpt lat="46.92673" lon="-0.86589">
        <ele>164</ele>
        <time>2023-11-13T11:42:08Z</time>
      </trkpt>
      <trkpt lat="46.9269" lon="-0.86577">
        <ele>162</ele>
        <time>2023-11-13T11:42:33Z</time>
      </trkpt>
      <trkpt lat="46.92707" lon="-0.86571">
        <ele>161</ele>
        <time>2023-11-13T11:42:56Z</time>
      </trkpt>
      <trkpt lat="46.92725" lon="-0.8657">
        <ele>158</ele>
        <time>2023-11-13T11:43:20Z</time>
      </trkpt>
      <trkpt lat="46.92742" lon="-0.86579">
        <ele>156</ele>
        <time>2023-11-13T11:43:44Z</time>
      </trkpt>
      <trkpt lat="46.92761" lon="-0.86579">
        <ele>152</ele>
        <time>2023-11-13T11:44:10Z</time>
      </trkpt>
      <trkpt lat="46.92794" lon="-0.86601">
        <ele>141</ele>
        <time>2023-11-13T11:44:58Z</time>
      </trkpt>
      <trkpt lat="46.92813" lon="-0.86587">
        <ele>137</ele>
        <time>2023-11-13T11:45:27Z</time>
      </trkpt>
      <trkpt lat="46.92825" lon="-0.86567">
        <ele>134</ele>
        <time>2023-11-13T11:45:51Z</time>
      </trkpt>
      <trkpt lat="46.92856" lon="-0.86535">
        <ele>131</ele>
        <time>2023-11-13T11:46:41Z</time>
      </trkpt>
      <trkpt lat="46.92874" lon="-0.86528">
        <ele>128</ele>
        <time>2023-11-13T11:47:06Z</time>
      </trkpt>
      <trkpt lat="46.92892" lon="-0.86532">
        <ele>126</ele>
        <time>2023-11-13T11:47:31Z</time>
      </trkpt>
      <trkpt lat="46.9297" lon="-0.86606">
        <ele>121</ele>
        <time>2023-11-13T11:49:35Z</time>
      </trkpt>
      <trkpt lat="46.92988" lon="-0.86609">
        <ele>121</ele>
        <time>2023-11-13T11:49:59Z</time>
      </trkpt>
      <trkpt lat="46.93004" lon="-0.86597">
        <ele>121</ele>
        <time>2023-11-13T11:50:23Z</time>
      </trkpt>
      <trkpt lat="46.93039" lon="-0.86581">
        <ele>123</ele>
        <time>2023-11-13T11:51:12Z</time>
      </trkpt>
      <trkpt lat="46.93056" lon="-0.8657">
        <ele>124</ele>
        <time>2023-11-13T11:51:37Z</time>
      </trkpt>
      <trkpt lat="46.93069" lon="-0.86588">
        <ele>124</ele>
        <time>2023-11-13T11:52:00Z</time>
      </trkpt>
      <trkpt lat="46.93126" lon="-0.86758">
        <ele>128</ele>
        <time>2023-11-13T11:54:53Z</time>
      </trkpt>
      <trkpt lat="46.93131" lon="-0.86785">
        <ele>127</ele>
        <time>2023-11-13T11:55:19Z</time>
      </trkpt>
      <trkpt lat="46.9313" lon="-0.86812">
        <ele>125</ele>
        <time>2023-11-13T11:55:43Z</time>
      </trkpt>
      <trkpt lat="46.93145" lon="-0.8683">
        <ele>125</ele>
        <time>2023-11-13T11:56:09Z</time>
      </trkpt>
      <trkpt lat="46.93182" lon="-0.86832">
        <ele>127</ele>
        <time>2023-11-13T11:56:58Z</time>
      </trkpt>
      <trkpt lat="46.93218" lon="-0.86847">
        <ele>127</ele>
        <time>2023-11-13T11:57:48Z</time>
      </trkpt>
      <trkpt lat="46.93236" lon="-0.86857">
        <ele>126</ele>
        <time>2023-11-13T11:58:14Z</time>
      </trkpt>
      <trkpt lat="46.93254" lon="-0.86852">
        <ele>127</ele>
        <time>2023-11-13T11:58:39Z</time>
      </trkpt>
      <trkpt lat="46.9331" lon="-0.86859">
        <ele>126</ele>
        <time>2023-11-13T11:59:54Z</time>
      </trkpt>
      <trkpt lat="46.93347" lon="-0.86852">
        <ele>126</ele>
        <time>2023-11-13T12:00:43Z</time>
      </trkpt>
      <trkpt lat="46.93381" lon="-0.8683">
        <ele>125</ele>
        <time>2023-11-13T12:01:33Z</time>
      </trkpt>
      <trkpt lat="46.93396" lon="-0.86814">
        <ele>126</ele>
        <time>2023-11-13T12:01:58Z</time>
      </trkpt>
      <trkpt lat="46.93408" lon="-0.86793">
        <ele>127</ele>
        <time>2023-11-13T12:02:23Z</time>
      </trkpt>
      <trkpt lat="46.93441" lon="-0.86668">
        <ele>138</ele>
        <time>2023-11-13T12:04:25Z</time>
      </trkpt>
      <trkpt lat="46.9347" lon="-0.8654">
        <ele>149</ele>
        <time>2023-11-13T12:06:28Z</time>
      </trkpt>
      <trkpt lat="46.93488" lon="-0.86494">
        <ele>152</ele>
        <time>2023-11-13T12:07:16Z</time>
      </trkpt>
      <trkpt lat="46.93502" lon="-0.86476">
        <ele>153</ele>
        <time>2023-11-13T12:07:41Z</time>
      </trkpt>
      <trkpt lat="46.93519" lon="-0.86466">
        <ele>153</ele>
        <time>2023-11-13T12:08:05Z</time>
      </trkpt>
      <trkpt lat="46.93547" lon="-0.86431">
        <ele>155</ele>
        <time>2023-11-13T12:08:54Z</time>
      </trkpt>
      <trkpt lat="46.9356" lon="-0.86411">
        <ele>156</ele>
        <time>2023-11-13T12:09:20Z</time>
      </trkpt>
      <trkpt lat="46.93591" lon="-0.86344">
        <ele>159</ele>
        <time>2023-11-13T12:10:33Z</time>
      </trkpt>
      <trkpt lat="46.93605" lon="-0.86182">
        <ele>164</ele>
        <time>2023-11-13T12:13:02Z</time>
      </trkpt>
      <trkpt lat="46.93604" lon="-0.86128">
        <ele>165</ele>
        <time>2023-11-13T12:13:51Z</time>
      </trkpt>
      <trkpt lat="46.93609" lon="-0.86048">
        <ele>165</ele>
        <time>2023-11-13T12:15:05Z</time>
      </trkpt>
      <trkpt lat="46.93606" lon="-0.86021">
        <ele>166</ele>
        <time>2023-11-13T12:15:29Z</time>
      </trkpt>
      <trkpt lat="46.93607" lon="-0.85967">
        <ele>166</ele>
        <time>2023-11-13T12:16:19Z</time>
      </trkpt>
      <trkpt lat="46.93625" lon="-0.85965">
        <ele>166</ele>
        <time>2023-11-13T12:16:43Z</time>
      </trkpt>
      <trkpt lat="46.93675" lon="-0.85997">
        <ele>166</ele>
        <time>2023-11-13T12:17:56Z</time>
      </trkpt>
      <trkpt lat="46.93813" lon="-0.86138">
        <ele>157</ele>
        <time>2023-11-13T12:21:40Z</time>
      </trkpt>
      <trkpt lat="46.93891" lon="-0.86213">
        <ele>155</ele>
        <time>2023-11-13T12:23:45Z</time>
      </trkpt>
      <trkpt lat="46.93905" lon="-0.86232">
        <ele>155</ele>
        <time>2023-11-13T12:24:10Z</time>
      </trkpt>
      <trkpt lat="46.9394" lon="-0.86296">
        <ele>155</ele>
        <time>2023-11-13T12:25:25Z</time>
      </trkpt>
      <trkpt lat="46.93981" lon="-0.86419">
        <ele>151</ele>
        <time>2023-11-13T12:27:30Z</time>
      </trkpt>
      <trkpt lat="46.93993" lon="-0.86439">
        <ele>151</ele>
        <time>2023-11-13T12:27:54Z</time>
      </trkpt>
      <trkpt lat="46.94008" lon="-0.86457">
        <ele>151</ele>
        <time>2023-11-13T12:28:20Z</time>
      </trkpt>
      <trkpt lat="46.94024" lon="-0.86471">
        <ele>152</ele>
        <time>2023-11-13T12:28:45Z</time>
      </trkpt>
      <trkpt lat="46.94057" lon="-0.86493">
        <ele>154</ele>
        <time>2023-11-13T12:29:33Z</time>
      </trkpt>
      <trkpt lat="46.94072" lon="-0.86509">
        <ele>155</ele>
        <time>2023-11-13T12:29:58Z</time>
      </trkpt>
      <trkpt lat="46.94156" lon="-0.86564">
        <ele>159</ele>
        <time>2023-11-13T12:32:00Z</time>
      </trkpt>
      <trkpt lat="46.94212" lon="-0.86636">
        <ele>162</ele>
        <time>2023-11-13T12:33:40Z</time>
      </trkpt>
      <trkpt lat="46.94278" lon="-0.86733">
        <ele>164</ele>
        <time>2023-11-13T12:35:45Z</time>
      </trkpt>
      <trkpt lat="46.94309" lon="-0.86764">
        <ele>164</ele>
        <time>2023-11-13T12:36:35Z</time>
      </trkpt>
      <trkpt lat="46.94341" lon="-0.8679">
        <ele>164</ele>
        <time>2023-11-13T12:37:24Z</time>
      </trkpt>
      <trkpt lat="46.94371" lon="-0.86821">
        <ele>165</ele>
        <time>2023-11-13T12:38:13Z</time>
      </trkpt>
      <trkpt lat="46.94448" lon="-0.86941">
        <ele>168</ele>
        <time>2023-11-13T12:40:43Z</time>
      </trkpt>
      <trkpt lat="46.94502" lon="-0.87016">
        <ele>171</ele>
        <time>2023-11-13T12:42:22Z</time>
      </trkpt>
      <trkpt lat="46.94541" lon="-0.87075">
        <ele>171</ele>
        <time>2023-11-13T12:43:37Z</time>
      </trkpt>
      <trkpt lat="46.94573" lon="-0.87141">
        <ele>169</ele>
        <time>2023-11-13T12:44:50Z</time>
      </trkpt>
      <trkpt lat="46.94597" lon="-0.87182">
        <ele>166</ele>
        <time>2023-11-13T12:45:40Z</time>
      </trkpt>
      <trkpt lat="46.94663" lon="-0.87275">
        <ele>162</ele>
        <time>2023-11-13T12:47:42Z</time>
      </trkpt>
      <trkpt lat="46.94706" lon="-0.87328">
        <ele>160</ele>
        <time>2023-11-13T12:48:57Z</time>
      </trkpt>
      <trkpt lat="46.9471" lon="-0.87355">
        <ele>160</ele>
        <time>2023-11-13T12:49:22Z</time>
      </trkpt>
      <trkpt lat="46.947" lon="-0.87378">
        <ele>160</ele>
        <time>2023-11-13T12:49:47Z</time>
      </trkpt>
      <trkpt lat="46.94675" lon="-0.87419">
        <ele>159</ele>
        <time>2023-11-13T12:50:37Z</time>
      </trkpt>
      <trkpt lat="46.9462" lon="-0.87528">
        <ele>156</ele>
        <time>2023-11-13T12:52:40Z</time>
      </trkpt>
      <trkpt lat="46.94607" lon="-0.87548">
        <ele>157</ele>
        <time>2023-11-13T12:53:06Z</time>
      </trkpt>
      <trkpt lat="46.94561" lon="-0.87634">
        <ele>160</ele>
        <time>2023-11-13T12:54:45Z</time>
      </trkpt>
      <trkpt lat="46.94569" lon="-0.87688">
        <ele>160</ele>
        <time>2023-11-13T12:55:35Z</time>
      </trkpt>
      <trkpt lat="46.94581" lon="-0.8771">
        <ele>160</ele>
        <time>2023-11-13T12:56:01Z</time>
      </trkpt>
      <trkpt lat="46.94585" lon="-0.87736">
        <ele>160</ele>
        <time>2023-11-13T12:56:25Z</time>
      </trkpt>
      <trkpt lat="46.94572" lon="-0.87787">
        <ele>157</ele>
        <time>2023-11-13T12:57:15Z</time>
      </trkpt>
      <trkpt lat="46.9455" lon="-0.87831">
        <ele>154</ele>
        <time>2023-11-13T12:58:05Z</time>
      </trkpt>
      <trkpt lat="46.94524" lon="-0.87867">
        <ele>152</ele>
        <time>2023-11-13T12:58:52Z</time>
      </trkpt>
      <trkpt lat="46.94514" lon="-0.87891">
        <ele>151</ele>
        <time>2023-11-13T12:59:18Z</time>
      </trkpt>
      <trkpt lat="46.94547" lon="-0.87912">
        <ele>148</ele>
        <time>2023-11-13T13:00:06Z</time>
      </trkpt>
      <trkpt lat="46.9456" lon="-0.87933">
        <ele>145</ele>
        <time>2023-11-13T13:00:32Z</time>
      </trkpt>
      <trkpt lat="46.94568" lon="-0.87957">
        <ele>142</ele>
        <time>2023-11-13T13:00:56Z</time>
      </trkpt>
      <trkpt lat="46.94572" lon="-0.87983">
        <ele>139</ele>
        <time>2023-11-13T13:01:21Z</time>
      </trkpt>
      <trkpt lat="46.94584" lon="-0.88003">
        <ele>136</ele>
        <time>2023-11-13T13:01:45Z</time>
      </trkpt>
      <trkpt lat="46.94602" lon="-0.87998">
        <ele>134</ele>
        <time>2023-11-13T13:02:09Z</time>
      </trkpt>
      <trkpt lat="46.94619" lon="-0.88004">
        <ele>131</ele>
        <time>2023-11-13T13:02:33Z</time>
      </trkpt>
      <trkpt lat="46.94637" lon="-0.88014">
        <ele>128</ele>
        <time>2023-11-13T13:02:58Z</time>
      </trkpt>
      <trkpt lat="46.94656" lon="-0.88013">
        <ele>125</ele>
        <time>2023-11-13T13:03:24Z</time>
      </trkpt>
      <trkpt lat="46.94669" lon="-0.8803">
        <ele>123</ele>
        <time>2023-11-13T13:03:47Z</time>
      </trkpt>
      <trkpt lat="46.94688" lon="-0.88033">
        <ele>121</ele>
        <time>2023-11-13T13:04:12Z</time>
      </trkpt>
      <trkpt lat="46.94721" lon="-0.88012">
        <ele>121</ele>
        <time>2023-11-13T13:05:00Z</time>
      </trkpt>
      <trkpt lat="46.94748" lon="-0.88049">
        <ele>118</ele>
        <time>2023-11-13T13:05:50Z</time>
      </trkpt>
      <trkpt lat="46.94764" lon="-0.88064">
        <ele>117</ele>
        <time>2023-11-13T13:06:15Z</time>
      </trkpt>
      <trkpt lat="46.94782" lon="-0.88063">
        <ele>117</ele>
        <time>2023-11-13T13:06:39Z</time>
      </trkpt>
      <trkpt lat="46.948" lon="-0.88056">
        <ele>116</ele>
        <time>2023-11-13T13:07:04Z</time>
      </trkpt>
      <trkpt lat="46.94818" lon="-0.88053">
        <ele>116</ele>
        <time>2023-11-13T13:07:28Z</time>
      </trkpt>
      <trkpt lat="46.94836" lon="-0.88059">
        <ele>116</ele>
        <time>2023-11-13T13:07:53Z</time>
      </trkpt>
      <trkpt lat="46.94853" lon="-0.8807">
        <ele>116</ele>
        <time>2023-11-13T13:08:18Z</time>
      </trkpt>
      <trkpt lat="46.94902" lon="-0.8811">
        <ele>115</ele>
        <time>2023-11-13T13:09:32Z</time>
      </trkpt>
      <trkpt lat="46.94936" lon="-0.88133">
        <ele>115</ele>
        <time>2023-11-13T13:10:22Z</time>
      </trkpt>
      <trkpt lat="46.94954" lon="-0.88139">
        <ele>116</ele>
        <time>2023-11-13T13:10:47Z</time>
      </trkpt>
      <trkpt lat="46.94991" lon="-0.88131">
        <ele>119</ele>
        <time>2023-11-13T13:11:37Z</time>
      </trkpt>
      <trkpt lat="46.95009" lon="-0.88139">
        <ele>120</ele>
        <time>2023-11-13T13:12:02Z</time>
      </trkpt>
      <trkpt lat="46.9504" lon="-0.88169">
        <ele>122</ele>
        <time>2023-11-13T13:12:52Z</time>
      </trkpt>
      <trkpt lat="46.95067" lon="-0.88205">
        <ele>123</ele>
        <time>2023-11-13T13:13:40Z</time>
      </trkpt>
      <trkpt lat="46.95089" lon="-0.8825">
        <ele>124</ele>
        <time>2023-11-13T13:14:31Z</time>
      </trkpt>
      <trkpt lat="46.95097" lon="-0.88274">
        <ele>123</ele>
        <time>2023-11-13T13:14:55Z</time>
      </trkpt>
      <trkpt lat="46.95121" lon="-0.88316">
        <ele>123</ele>
        <time>2023-11-13T13:15:45Z</time>
      </trkpt>
      <trkpt lat="46.95135" lon="-0.88334">
        <ele>122</ele>
        <time>2023-11-13T13:16:10Z</time>
      </trkpt>
      <trkpt lat="46.95182" lon="-0.88377">
        <ele>120</ele>
        <time>2023-11-13T13:17:24Z</time>
      </trkpt>
      <trkpt lat="46.95201" lon="-0.8838">
        <ele>120</ele>
        <time>2023-11-13T13:17:49Z</time>
      </trkpt>
      <trkpt lat="46.95219" lon="-0.88374">
        <ele>122</ele>
        <time>2023-11-13T13:18:14Z</time>
      </trkpt>
      <trkpt lat="46.95255" lon="-0.8839">
        <ele>120</ele>
        <time>2023-11-13T13:19:04Z</time>
      </trkpt>
      <trkpt lat="46.95274" lon="-0.88392">
        <ele>118</ele>
        <time>2023-11-13T13:19:30Z</time>
      </trkpt>
      <trkpt lat="46.95327" lon="-0.88372">
        <ele>116</ele>
        <time>2023-11-13T13:20:43Z</time>
      </trkpt>
      <trkpt lat="46.95345" lon="-0.88372">
        <ele>115</ele>
        <time>2023-11-13T13:21:07Z</time>
      </trkpt>
      <trkpt lat="46.95382" lon="-0.88382">
        <ele>113</ele>
        <time>2023-11-13T13:21:57Z</time>
      </trkpt>
      <trkpt lat="46.95418" lon="-0.88382">
        <ele>112</ele>
        <time>2023-11-13T13:22:45Z</time>
      </trkpt>
      <trkpt lat="46.95437" lon="-0.88379">
        <ele>112</ele>
        <time>2023-11-13T13:23:10Z</time>
      </trkpt>
      <trkpt lat="46.95454" lon="-0.88372">
        <ele>112</ele>
        <time>2023-11-13T13:23:34Z</time>
      </trkpt>
      <trkpt lat="46.95501" lon="-0.88329">
        <ele>115</ele>
        <time>2023-11-13T13:24:48Z</time>
      </trkpt>
      <trkpt lat="46.95518" lon="-0.88319">
        <ele>117</ele>
        <time>2023-11-13T13:25:12Z</time>
      </trkpt>
      <trkpt lat="46.95573" lon="-0.88325">
        <ele>118</ele>
        <time>2023-11-13T13:26:26Z</time>
      </trkpt>
      <trkpt lat="46.95601" lon="-0.88363">
        <ele>114</ele>
        <time>2023-11-13T13:27:17Z</time>
      </trkpt>
      <trkpt lat="46.95616" lon="-0.88377">
        <ele>113</ele>
        <time>2023-11-13T13:27:41Z</time>
      </trkpt>
      <trkpt lat="46.95634" lon="-0.88384">
        <ele>112</ele>
        <time>2023-11-13T13:28:05Z</time>
      </trkpt>
      <trkpt lat="46.95669" lon="-0.88403">
        <ele>111</ele>
        <time>2023-11-13T13:28:55Z</time>
      </trkpt>
      <trkpt lat="46.95697" lon="-0.88438">
        <ele>111</ele>
        <time>2023-11-13T13:29:44Z</time>
      </trkpt>
      <trkpt lat="46.95758" lon="-0.88498">
        <ele>110</ele>
        <time>2023-11-13T13:31:22Z</time>
      </trkpt>
      <trkpt lat="46.95784" lon="-0.88538">
        <ele>111</ele>
        <time>2023-11-13T13:32:13Z</time>
      </trkpt>
      <trkpt lat="46.95799" lon="-0.88555">
        <ele>111</ele>
        <time>2023-11-13T13:32:38Z</time>
      </trkpt>
      <trkpt lat="46.95829" lon="-0.88623">
        <ele>111</ele>
        <time>2023-11-13T13:33:52Z</time>
      </trkpt>
      <trkpt lat="46.95854" lon="-0.88662">
        <ele>111</ele>
        <time>2023-11-13T13:34:41Z</time>
      </trkpt>
      <trkpt lat="46.95865" lon="-0.88684">
        <ele>111</ele>
        <time>2023-11-13T13:35:05Z</time>
      </trkpt>
      <trkpt lat="46.95883" lon="-0.88679">
        <ele>112</ele>
        <time>2023-11-13T13:35:30Z</time>
      </trkpt>
    </trkseg>
  </trk>
</gpx>